Augusta Regional At Bush Field
KAGS : rendu visible

Aérodrome :











RETROUVEZ-NOUS SUR...

 
LOGIN :

S'inscrire | Disclaimer

   EN    FR    IT 

 









Légende :    VFR   VFR Marginal   IFR   IFR Intensif   IFR Très Intensif
Visi : 
Plafond : 
>= 8 km
>= 3000ft
5 à 8 km
1000 à 3000 ft
1500m à 5 km
500 à 1000 ft
800 à 1500m
200 à 500 ft
< 800m
< 200 ft
Symboles :   Orages  Brouillard  Fortes neiges  Fortes précipitations  Vent > 20 kt






- Altitude de l'aérodrome : 144 ft
- Code IATA : AGS


KAGS - Augusta Regional At Bush Field

DERNIER METAR :
  • 150753Z AUTO 36007KT 4SM -RA BR OVC007 07/05 A3017 RMK AO2 SLP216 P0003 T00670050

METARs EXPIRÉS :
  • 150742Z AUTO 36006KT 4SM -RA BR BKN007 OVC013 07/05 A3017 RMK AO2 CIG 005V010 P0002 T00670050
  • 150732Z AUTO 36006KT 4SM -RA BR BKN008 OVC012 07/05 A3018 RMK AO2 P0002 T00670050
  • 150653Z AUTO 01006KT 8SM -RA OVC012 07/04 A3019 RMK AO2 SLP221 P0003 T00670044
  • 150553Z AUTO 02005KT 5SM RA BR OVC013 07/04 A3021 RMK AO2 SLP229 P0002 60003 T00670044 10089 20067 58009

TAF KAGS
Valide du 15 à 06h jusqu'au 16 à 06h UTC


150536Z 1506/1606 02006KT 6SM -RA BR SCT008 OVC014
FM150800 02008KT 5SM -RA BR OVC007
FM152000 01010KT 5SM -RA BR SCT007 OVC012



MET'MAP, la Météo Aéronautique d'un coup d'oeil ! - Copyright ORBIFLY Décembre 2007 - Disclaimer

ORBIFLY MET'MAP TEAM :

Programmation & Développement : Alexandra Zaïnal
Conception & Développement : Baudouin d'Aumeries
Co-Programmation & Développement : Marc-Olivier Méhu
Soutien technique & logistique : Manuel Goepfert

Contact : metmap@orbifly.com




SOURCES & CREDITS :

   NOAA       Earth
Advisory